createdAt,value
2022-11-20T00:04:50.101Z,79.43
2022-11-20T00:19:52.021Z,79.19
2022-11-20T00:34:53.881Z,78.84
2022-11-20T00:49:55.824Z,78.33
2022-11-20T01:04:57.721Z,78.00
2022-11-20T01:19:59.621Z,77.54
2022-11-20T01:35:01.561Z,77.43
2022-11-20T01:50:18.242Z,77.18
2022-11-20T02:05:48.162Z,77.60
2022-11-20T02:20:54.841Z,77.50
2022-11-20T02:35:56.743Z,77.37
2022-11-20T02:50:58.703Z,77.57
2022-11-20T03:06:01.181Z,77.60
2022-11-20T03:21:03.182Z,77.59
2022-11-20T03:36:08.241Z,77.56
2022-11-20T03:51:13.441Z,77.32
2022-11-20T04:06:30.882Z,77.23
2022-11-20T04:21:32.924Z,77.03
2022-11-20T04:36:35.562Z,76.55
2022-11-20T04:51:37.501Z,76.91
2022-11-20T05:06:39.422Z,76.35
2022-11-20T05:21:41.321Z,76.32
2022-11-20T05:36:43.320Z,76.23
2022-11-20T05:51:45.245Z,75.96
2022-11-20T06:06:47.162Z,76.46
2022-11-20T06:21:50.843Z,76.83
2022-11-20T06:36:52.762Z,77.31
2022-11-20T06:51:54.650Z,77.54
2022-11-20T07:06:56.581Z,77.91
2022-11-20T07:21:58.563Z,77.90
2022-11-20T07:37:00.461Z,77.57
2022-11-20T07:52:05.047Z,77.16
2022-11-20T08:07:07.385Z,76.09
2022-11-20T08:22:09.572Z,75.86
2022-11-20T08:37:11.470Z,76.49
2022-11-20T08:52:13.332Z,75.93
2022-11-20T09:07:15.267Z,75.31
2022-11-20T09:22:17.188Z,75.18
2022-11-20T09:37:19.159Z,74.53
2022-11-20T09:52:47.028Z,74.31
2022-11-20T10:08:15.317Z,73.08
2022-11-20T10:23:29.317Z,71.70
2022-11-20T10:38:48.350Z,69.70
2022-11-20T10:54:19.435Z,68.64
2022-11-20T11:09:33.186Z,67.36
2022-11-20T11:24:42.324Z,66.68
2022-11-20T11:39:51.879Z,67.22
2022-11-20T11:55:10.294Z,68.11
2022-11-20T12:10:36.115Z,70.11
2022-11-20T12:25:39.926Z,70.78
2022-11-20T12:40:58.426Z,70.85
2022-11-20T12:56:18.855Z,71.14
2022-11-20T13:11:29.586Z,71.44
2022-11-20T13:26:31.606Z,71.45
2022-11-20T13:41:40.627Z,71.37
2022-11-20T13:57:20.327Z,71.29
2022-11-20T14:12:28.366Z,72.83
2022-11-20T14:27:30.547Z,73.88
2022-11-20T14:42:33.105Z,74.45
2022-11-20T14:57:37.105Z,74.83
2022-11-20T15:13:12.929Z,74.83
2022-11-20T15:28:35.265Z,75.68
2022-11-20T15:43:39.195Z,75.83
2022-11-20T15:58:42.267Z,76.11
2022-11-20T16:14:02.865Z,76.51
2022-11-20T16:29:06.746Z,76.78
2022-11-20T16:44:11.077Z,77.50
2022-11-20T16:59:13.849Z,78.32
2022-11-20T17:14:15.877Z,79.25
2022-11-20T17:29:24.315Z,80.08
2022-11-20T17:44:26.420Z,81.23
2022-11-20T17:59:29.686Z,82.18
2022-11-20T18:14:41.714Z,82.81
2022-11-20T18:29:45.527Z,83.29
2022-11-20T18:44:55.211Z,83.57
2022-11-20T19:00:04.849Z,84.18
2022-11-20T19:15:23.540Z,84.32
2022-11-20T19:30:25.587Z,84.73
2022-11-20T19:45:27.587Z,84.90
2022-11-20T20:00:33.388Z,85.01
2022-11-20T20:15:39.465Z,85.30
2022-11-20T20:30:41.468Z,85.71
2022-11-20T20:45:48.447Z,85.96
2022-11-20T21:00:50.867Z,86.16
2022-11-20T21:15:52.824Z,86.16
2022-11-20T21:31:03.831Z,86.71
2022-11-20T21:46:09.642Z,87.37
2022-11-20T22:01:12.602Z,87.46
2022-11-20T22:16:15.204Z,87.65
2022-11-20T22:31:18.069Z,87.89
2022-11-20T22:46:20.273Z,87.94
2022-11-20T23:01:24.385Z,87.69
2022-11-20T23:16:28.746Z,87.58
2022-11-20T23:31:32.235Z,87.86
2022-11-20T23:46:34.267Z,87.69
